AirNav   Bose ProFlight Aviation Headset
 
 1542 users online  

73KY Brooks Field Airport
Brooks, Kentucky, USA

GOING TO BROOKS?


FAA INFORMATION EFFECTIVE 13 SEPTEMBER 2018

Location

FAA Identifier: 73KY
Lat/Long: 38-01-59.9000N / 085-48-03.0000W
38-01.998333N / 085-48.050000W
38.0333056 / -85.8008333
(estimated)
Elevation: 480 ft. / 146 m (estimated)
From city: 5 miles ENE of BROOKS, KY
Time zone: UTC -4 (UTC -5 during Standard Time)
Zip code: 40165

Airport Operations

Airport use: Private use. Permission required prior to landing
Activation date: 09/2004
Control tower: no
ARTCC: INDIANAPOLIS CENTER
FSS: LOUISVILLE FLIGHT SERVICE STATION
Attendance: UNATNDD
Wind indicator: yes
Segmented circle: no

Airport Communications

WX ASOS at SDF (9 nm N): PHONE 502-367-1492
WX ASOS at LOU (13 nm NE): 118.275 (502-473-0693)
WX AWOS-3 at BRY (19 nm SE): 119.925 (502-348-1867)
  • 122.75

Nearby radio navigation aids

VOR radial/distance  VOR name  Freq  Var
FTKr048/11.1FORT KNOX VOR/DME109.6001W
IIUr247/11.4LOUISVILLE VORTAC114.8001E
BQMr213/13.4BOWMAN VOR/DME112.2004W
MYSr069/(22.6)MYSTIC VOR108.2001W
EWOr345/24.8NEW HOPE VOR/DME110.8001E

 
NDB name  Hdg/Dist  Freq  Var  ID
GODMAN065/9.439603WGOI --. --- ..
LAANG234/10.441404WLK .-.. -.-

Airport Services

Runway Information

Runway 6/24

Dimensions: 2150 x 80 ft. / 655 x 24 m
Surface: turf
RUNWAY 6  RUNWAY 24
Traffic pattern: leftright

Airport Ownership and Management from official FAA records

Ownership: Privately-owned
Owner: DWAYNE E. HARGROVE
2152 MARTIN HILL RD.
SHEPHERDSVILLE, KY 40165
Phone (502) 215-4095
Manager: DWAYNE E. HARGROVE
2152 MARTIN HILL RD.
SHEPHERDSVILLE, KY 40165
Phone (502) 215-4095

Airport Operational Statistics

Aircraft based on the field: 6
Single engine airplanes: 6
    

Additional Remarks

150 FT PLINE 1 NM NE OF RY 06/24.
(CONTACT TITLE) OWNER - DEHARGROVE@WINDSTREAM.NET

Instrument Procedures

There are no published instrument procedures at 73KY.

Some nearby airports with instrument procedures:

KSDF - Louisville International Airport-Standiford Field (9 nm N)
KFTK - Godman Army Airfield (11 nm SW)
KLOU - Bowman Field Airport (13 nm NE)
KBRY - Samuels Field Airport (19 nm SE)
KJVY - Clark Regional Airport (20 nm N)
 
Loc | Ops | Rwys | IFR | FBO | Links
Com | Nav | Svcs | Stats | Notes


 
Area around 73KY (Brooks Field Airport)
 
Road maps at: MapQuest Bing Google
 
Aerial photo
WARNING: Photo may not be current or correct
Aerial photo of 73KY (Brooks Field Airport)
Photo taken 05-Oct-2009

Do you have a better or more recent aerial photo of Brooks Field Airport that you would like to share? If so, please send us your photo.

 
Sectional chart

 
Airport distance calculator
Flying to Brooks Field Airport? Find the distance to fly.

From to 73KY

Sunrise and sunset
Times for 21-Sep-2018
 Local
(UTC-4)
 Zulu
(UTC)
Morning civil twilight07:0511:05
Sunrise07:3111:31
Sunset19:4223:42
Evening civil twilight20:0800:08

Current date and time
Zulu (UTC)  21-Sep-2018 16:05:55
Local (UTC-4)  21-Sep-2018 12:05:55
 
METAR
KSDF 
10nm N 
211556Z 21009KT 10SM FEW120 FEW250 30/22 A3005 RMK AO2 SLP169 T03000217
KFTK 
12nm SW 
211556Z AUTO 19012G18KT 10SM FEW038 30/22 A3007 RMK AO2 SLP178 T03030216 $
KLOU 
13nm NE 
211553Z 20008G17KT 10SM CLR 31/23 A3006 RMK AO2 SLP171 T03060228
KEKX 
19nm S 
211555Z AUTO 20011KT 10SM CLR 30/21 A3008 RMK AO2 T02970211
KBRY 
19nm SE 
211555Z AUTO 19009G17KT 10SM CLR 27/20 A3008 RMK AO1
TAF
KSDF 
10nm N 
211137Z 2112/2218 19012KT P6SM SCT080 BKN120 FM211300 21013G19KT P6SM BKN080 FM211800 24014G22KT P6SM VCTS BKN060CB TEMPO 2121/2124 VRB15G25KT 2SM TSRA FM220100 32011G16KT P6SM BKN060 FM220600 36012KT P6SM SCT023 OVC060
KFTK 
12nm SW 
210900Z 2109/2215 20009KT 9999 FEW050 QNH2999INS TEMPO 2123/2201 27015G25KT 6000 -TSRA BKN035CB BECMG 2200/2201 33009KT 9999 SCT020 BKN150 QNH3002INS BECMG 2206/2207 36009KT 9999 BKN150 QNH3012INS BECMG 2214/2215 05012KT 9999 BKN100 QNH2996INS TX32/2121Z TN17/2209Z
NOTAMs
Click for the latest NOTAMs
NOTAMs are issued by the DoD/FAA and will open in a separate window not controlled by AirNav.

 

 
 

Would you like to see your business listed on this page?

 If your business provides an interesting product or service to pilots, flight crews, aircraft, or users of the Brooks Field Airport, you should consider listing it here.  To start the listing process, click on the button below
 
Add a business
 

Other Pages about Brooks Field Airport

Update a link
 
Copyright © AirNav, LLC. All rights reserved. Privacy Policy  Contact